Kezdőlap
METAR-TAF:

METAR-TAF

Repülőterek :

Bahreini nemzetközi repülőtér

Bahrein, Bahrein

földrajzi szélesség: 26-16N, földrajzi hosszúság: 050-39E, magasság: 2 m

Jelenlegi meteorológiai megfigyelések

A jelentés 15 perccel ezelõtt készült, 19:30 UTC
Szélcsend
Hőmérséklet 30°C
Páratartalom 79%
Légköri nyomás 1006 hPa
Látótávolság 10 km, vagy több
felhőtlen 1500 m magasságban, és nincs gomolyfelhõ

METAR: OBBI 271930Z 00000KT CAVOK 30/26 Q1006 NOSIG

Idő: 22:45 (19:45 UTC)

Előrejelzés

A jelentés 2 órával és 45 perccel ezelõtt készült, 17:00 UTC
Az előrejelzés 27-én 18 óra UTC és 29-én 00 óra UTC között érvényes
Különbözõ irányokból fújó szél 5 kt
Látótávolság 10 km, vagy több
felhőtlen 1500 m magasságban, és nincs gomolyfelhõ

TAF: OBBI 271700Z 2718/2900 VRB05KT CAVOK

Meteorológiai megfigyelések és előrejelzések több, mint 4000 repülőtéren (METAR és TAF jelentéseket).

A térképen piros és sárga pontok jelzik az elérhető meteorológiai állomásokat.

Mozgassa az egeret a pont fölött, hogy megjelenjen az állomás neve.

Azután kattintson az időjárási megfigyelések és előrejelzések megtekintéséhez.

A térkép megváltoztatása: kattintson a fekete keresztel jelölt zöld gombra ráközelítéshez, a vonallal jelölt zöld gombra távolításhoz, vagy a zöld nyilakra a szomszédos térképek eléréséhez.


METAR-TAF: